createdAt,value
2018-07-21T00:01:35.115Z,6.80
2018-07-21T00:04:03.683Z,5.73
2018-07-21T00:06:32.565Z,6.03
2018-07-21T00:09:01.406Z,6.47
2018-07-21T00:11:30.212Z,6.47
2018-07-21T00:13:58.996Z,6.33
2018-07-21T00:16:28.690Z,7.00
2018-07-21T00:18:57.207Z,6.23
2018-07-21T00:21:26.076Z,6.40
2018-07-21T00:23:54.590Z,6.27
2018-07-21T00:26:23.129Z,5.63
2018-07-21T00:28:51.634Z,6.30
2018-07-21T00:31:20.128Z,6.47
2018-07-21T00:33:48.659Z,6.93
2018-07-21T00:36:17.151Z,6.57
2018-07-21T00:38:45.663Z,6.97
2018-07-21T00:41:14.520Z,6.17
2018-07-21T00:43:43.042Z,6.10
2018-07-21T00:46:11.524Z,6.80
2018-07-21T00:48:40.076Z,6.03
2018-07-21T00:51:08.876Z,7.80
2018-07-21T00:53:37.391Z,6.77
2018-07-21T00:56:06.283Z,7.47
2018-07-21T00:58:35.416Z,7.67
2018-07-21T01:01:04.000Z,8.10
2018-07-21T01:03:32.559Z,7.57
2018-07-21T01:06:01.115Z,7.20
2018-07-21T01:08:29.640Z,8.20
2018-07-21T01:10:58.186Z,8.97
2018-07-21T01:13:26.718Z,8.30
2018-07-21T01:15:55.294Z,8.07
2018-07-21T01:18:23.807Z,7.43
2018-07-21T01:20:52.008Z,8.10
2018-07-21T01:23:20.570Z,7.70
2018-07-21T01:25:49.143Z,8.17
2018-07-21T01:28:17.704Z,7.30
2018-07-21T01:30:46.246Z,8.67
2018-07-21T01:33:14.756Z,9.03
2018-07-21T01:35:43.264Z,8.83
2018-07-21T01:38:11.895Z,8.87
2018-07-21T01:40:40.415Z,8.30
2018-07-21T01:43:09.067Z,7.83
2018-07-21T01:45:37.559Z,8.60
2018-07-21T01:48:06.690Z,9.00
2018-07-21T01:50:35.195Z,8.50
2018-07-21T01:53:04.058Z,8.80
2018-07-21T01:55:32.540Z,9.40
2018-07-21T01:58:01.067Z,8.97
2018-07-21T02:00:29.234Z,9.23
2018-07-21T02:02:57.767Z,8.63
2018-07-21T02:05:26.633Z,8.30
2018-07-21T02:07:55.143Z,8.70
2018-07-21T02:10:24.387Z,9.40
2018-07-21T02:12:53.587Z,8.70
2018-07-21T02:15:22.431Z,8.60
2018-07-21T02:17:50.975Z,7.70
2018-07-21T02:20:19.568Z,8.07
2018-07-21T02:22:48.151Z,8.63
2018-07-21T02:25:16.656Z,8.07
2018-07-21T02:27:45.199Z,8.43
2018-07-21T02:30:13.724Z,7.90
2018-07-21T02:32:42.264Z,7.90
2018-07-21T02:35:10.800Z,8.40
2018-07-21T02:37:39.299Z,8.97
2018-07-21T02:40:07.834Z,8.97
2018-07-21T02:42:36.331Z,9.33
2018-07-21T02:45:05.614Z,8.47
2018-07-21T02:47:34.108Z,9.73
2018-07-21T02:50:02.680Z,9.53
2018-07-21T02:52:31.158Z,9.50
2018-07-21T02:54:59.668Z,9.27
2018-07-21T02:57:28.179Z,9.30
2018-07-21T02:59:56.691Z,9.57
2018-07-21T03:02:25.185Z,9.67
2018-07-21T03:04:53.695Z,10.07
2018-07-21T03:07:22.172Z,10.47
2018-07-21T03:09:50.685Z,9.70
2018-07-21T03:12:19.405Z,9.47
2018-07-21T03:14:47.942Z,10.30
2018-07-21T03:17:16.496Z,9.50
2018-07-21T03:19:45.015Z,9.37
2018-07-21T03:22:13.543Z,9.97
2018-07-21T03:24:42.059Z,9.77
2018-07-21T03:27:10.560Z,10.33
2018-07-21T03:29:39.058Z,10.43
2018-07-21T03:32:07.552Z,9.70
2018-07-21T03:36:00.494Z,11.10
2018-07-21T03:38:28.994Z,10.30
2018-07-21T03:40:57.523Z,10.17
2018-07-21T03:43:25.995Z,9.90
2018-07-21T03:45:54.527Z,10.57
2018-07-21T03:48:23.006Z,9.87
2018-07-21T03:50:51.551Z,10.10
2018-07-21T03:53:20.107Z,11.10
2018-07-21T03:55:48.609Z,9.83
2018-07-21T03:58:17.087Z,10.00
2018-07-21T04:00:45.579Z,11.07
2018-07-21T04:03:14.107Z,10.10
2018-07-21T04:05:42.615Z,10.90
2018-07-21T04:08:11.099Z,10.63
2018-07-21T04:10:39.618Z,10.03
2018-07-21T04:13:08.143Z,10.53
2018-07-21T04:15:36.635Z,10.67
2018-07-21T04:18:05.147Z,10.90
2018-07-21T04:20:33.652Z,10.10
2018-07-21T04:23:02.194Z,10.87
2018-07-21T04:25:30.711Z,10.97
2018-07-21T04:27:59.188Z,11.00
2018-07-21T04:30:27.687Z,10.50
2018-07-21T04:32:56.184Z,11.40
2018-07-21T04:35:25.058Z,11.67
2018-07-21T04:37:53.544Z,11.47
2018-07-21T04:40:22.046Z,12.53
2018-07-21T04:42:50.535Z,11.53
2018-07-21T04:45:19.072Z,12.17
2018-07-21T04:47:47.583Z,12.50
2018-07-21T04:50:16.089Z,11.90
2018-07-21T04:52:44.574Z,12.97
2018-07-21T04:55:13.090Z,13.13
2018-07-21T04:57:41.595Z,13.00
2018-07-21T05:00:10.162Z,13.83
2018-07-21T05:02:38.667Z,13.70
2018-07-21T05:05:07.163Z,14.50
2018-07-21T05:07:35.655Z,14.10
2018-07-21T05:10:04.219Z,14.77
2018-07-21T05:12:32.743Z,13.90
2018-07-21T05:15:01.252Z,14.00
2018-07-21T05:17:29.784Z,14.83
2018-07-21T05:19:58.356Z,14.33
2018-07-21T05:22:27.021Z,13.73
2018-07-21T05:24:55.543Z,13.73
2018-07-21T05:27:24.391Z,14.23
2018-07-21T05:29:52.943Z,13.93
2018-07-21T05:32:21.462Z,15.00
2018-07-21T05:34:49.957Z,14.97
2018-07-21T05:37:18.475Z,14.23
2018-07-21T05:39:47.008Z,15.23
2018-07-21T05:42:15.545Z,15.37
2018-07-21T05:44:44.261Z,15.33
2018-07-21T05:47:12.774Z,14.90
2018-07-21T05:49:41.614Z,14.70
2018-07-21T05:52:10.144Z,14.87
2018-07-21T05:54:38.709Z,15.33
2018-07-21T05:57:07.395Z,15.57
2018-07-21T05:59:35.877Z,14.33
2018-07-21T06:02:04.446Z,14.50
2018-07-21T06:04:33.346Z,14.17
2018-07-21T06:07:02.544Z,14.73
2018-07-21T06:09:31.042Z,14.83
2018-07-21T06:11:59.582Z,15.53
2018-07-21T06:14:28.420Z,15.50
2018-07-21T06:16:57.001Z,15.20
2018-07-21T06:19:25.624Z,13.60
2018-07-21T06:21:54.127Z,14.17
2018-07-21T06:24:22.648Z,15.03
2018-07-21T06:26:51.165Z,14.40
2018-07-21T06:29:20.283Z,14.37
2018-07-21T06:31:48.801Z,15.50
2018-07-21T06:34:17.302Z,14.37
2018-07-21T06:36:45.832Z,14.03
2018-07-21T06:39:14.318Z,14.17
2018-07-21T06:41:43.122Z,13.37
2018-07-21T06:44:11.606Z,12.47
2018-07-21T06:46:40.155Z,15.33
2018-07-21T06:49:08.662Z,13.10
2018-07-21T06:51:37.175Z,13.50
2018-07-21T06:54:05.715Z,12.93
2018-07-21T06:56:34.607Z,13.57
2018-07-21T06:59:03.128Z,13.43
2018-07-21T07:01:31.682Z,13.63
2018-07-21T07:04:00.192Z,10.60
2018-07-21T07:06:28.710Z,10.07
2018-07-21T07:08:57.235Z,10.57
2018-07-21T07:11:26.035Z,10.73
2018-07-21T07:13:54.578Z,11.03
2018-07-21T07:16:23.480Z,11.03
2018-07-21T07:18:52.548Z,10.33
2018-07-21T07:21:21.422Z,10.70
2018-07-21T07:23:49.911Z,11.67
2018-07-21T07:26:18.470Z,10.03
2018-07-21T07:28:46.972Z,10.23
2018-07-21T07:31:15.512Z,9.83
2018-07-21T07:33:43.662Z,9.50
2018-07-21T07:36:12.224Z,10.07
2018-07-21T07:38:40.880Z,11.57
2018-07-21T07:41:09.395Z,12.33
2018-07-21T07:43:37.883Z,11.40
2018-07-21T07:46:06.726Z,10.77
2018-07-21T07:48:35.251Z,10.73
2018-07-21T07:51:03.759Z,10.93
2018-07-21T07:53:32.326Z,10.70
2018-07-21T07:56:00.968Z,10.73
2018-07-21T07:58:29.460Z,11.87
2018-07-21T08:00:57.958Z,11.20
2018-07-21T08:03:26.483Z,11.83
2018-07-21T08:05:54.968Z,11.10
2018-07-21T08:08:23.525Z,11.13
2018-07-21T08:10:52.158Z,10.93
2018-07-21T08:13:20.677Z,10.97
2018-07-21T08:15:49.167Z,11.30
2018-07-21T08:18:17.758Z,10.87
2018-07-21T08:20:46.404Z,10.93
2018-07-21T08:23:14.934Z,11.37
2018-07-21T08:25:43.415Z,12.60
2018-07-21T08:28:11.935Z,12.77
2018-07-21T08:30:40.784Z,12.53
2018-07-21T08:33:09.291Z,11.93
2018-07-21T08:35:37.788Z,12.13
2018-07-21T08:38:06.319Z,13.80
2018-07-21T08:40:34.841Z,11.87
2018-07-21T08:43:03.485Z,12.60
2018-07-21T08:45:31.968Z,12.03
2018-07-21T08:48:00.471Z,12.47
2018-07-21T08:50:28.979Z,12.83
2018-07-21T08:52:57.706Z,13.20
2018-07-21T08:55:26.239Z,13.17
2018-07-21T08:57:54.976Z,12.90
2018-07-21T09:00:23.484Z,11.80
2018-07-21T09:02:51.989Z,12.10
2018-07-21T09:05:20.861Z,12.57
2018-07-21T09:07:49.413Z,12.07
2018-07-21T09:10:18.176Z,12.60
2018-07-21T09:12:46.672Z,12.30
2018-07-21T09:15:15.170Z,12.77
2018-07-21T09:17:43.686Z,13.60
2018-07-21T09:20:12.186Z,13.17
2018-07-21T09:22:40.715Z,16.70
2018-07-21T09:25:09.243Z,16.37
2018-07-21T09:27:37.755Z,12.97
2018-07-21T09:30:05.962Z,15.23
2018-07-21T09:32:34.479Z,13.70
2018-07-21T09:35:02.991Z,13.27
2018-07-21T09:37:31.494Z,16.10
2018-07-21T09:39:59.999Z,14.57
2018-07-21T09:42:28.846Z,13.90
2018-07-21T09:44:57.378Z,14.77
2018-07-21T09:47:25.874Z,14.43
2018-07-21T09:49:54.395Z,13.90
2018-07-21T09:52:23.251Z,14.87
2018-07-21T09:54:51.758Z,13.77
2018-07-21T09:57:20.244Z,15.17
2018-07-21T09:59:48.827Z,14.43
2018-07-21T10:02:17.335Z,13.80
2018-07-21T10:04:46.458Z,12.83
2018-07-21T10:07:14.957Z,12.90
2018-07-21T10:09:43.636Z,13.30
2018-07-21T10:12:12.143Z,13.67
2018-07-21T10:14:40.664Z,13.33
2018-07-21T10:17:09.221Z,14.37
2018-07-21T10:19:37.792Z,13.77
2018-07-21T10:22:06.645Z,12.43
2018-07-21T10:24:40.566Z,15.77
2018-07-21T10:27:12.747Z,13.40
2018-07-21T10:29:41.555Z,11.37
2018-07-21T10:32:10.149Z,11.97
2018-07-21T10:34:38.670Z,10.53
2018-07-21T10:37:07.542Z,11.60
2018-07-21T10:39:36.065Z,11.83
2018-07-21T10:42:04.723Z,12.30
2018-07-21T10:44:33.277Z,10.50
2018-07-21T10:47:01.899Z,10.40
2018-07-21T10:49:30.413Z,11.30
2018-07-21T10:51:58.911Z,11.80
2018-07-21T10:54:27.422Z,12.67
2018-07-21T10:56:55.918Z,10.53
2018-07-21T10:59:25.214Z,10.03
2018-07-21T11:01:53.734Z,10.50
2018-07-21T11:04:22.247Z,12.07
2018-07-21T11:06:50.726Z,11.47
2018-07-21T11:09:19.254Z,9.97
2018-07-21T11:11:47.763Z,11.17
2018-07-21T11:14:16.313Z,11.53
2018-07-21T11:16:44.801Z,12.47
2018-07-21T11:19:13.308Z,9.70
2018-07-21T11:21:41.811Z,12.17
2018-07-21T11:24:10.315Z,10.53
2018-07-21T11:26:38.810Z,10.53
2018-07-21T11:29:07.319Z,10.23
2018-07-21T11:31:35.824Z,9.93
2018-07-21T11:34:05.051Z,10.80
2018-07-21T11:36:33.582Z,10.27
2018-07-21T11:39:02.239Z,11.17
2018-07-21T11:41:30.731Z,9.00
2018-07-21T11:43:59.234Z,10.30
2018-07-21T11:46:27.735Z,8.67
2018-07-21T11:48:56.240Z,8.83
2018-07-21T11:51:24.756Z,9.90
2018-07-21T11:53:53.287Z,11.33
2018-07-21T11:56:21.835Z,10.00
2018-07-21T11:58:50.348Z,9.67
2018-07-21T12:01:18.864Z,10.70
2018-07-21T12:03:47.378Z,10.03
2018-07-21T12:06:15.899Z,9.03
2018-07-21T12:08:44.461Z,9.70
2018-07-21T12:11:12.985Z,8.97
2018-07-21T12:13:41.580Z,8.47
2018-07-21T12:16:10.343Z,8.57
2018-07-21T12:18:38.831Z,8.93
2018-07-21T12:21:07.723Z,9.47
2018-07-21T12:23:36.239Z,9.30
2018-07-21T12:26:04.843Z,9.27
2018-07-21T12:28:33.400Z,9.30
2018-07-21T12:31:01.914Z,9.03
2018-07-21T12:33:30.483Z,10.43
2018-07-21T12:35:59.154Z,9.90
2018-07-21T12:38:27.635Z,9.30
2018-07-21T12:40:56.173Z,9.33
2018-07-21T12:43:24.654Z,8.57
2018-07-21T12:45:53.203Z,8.40
2018-07-21T12:48:21.703Z,8.43
2018-07-21T12:50:50.202Z,8.60
2018-07-21T12:53:18.685Z,8.27
2018-07-21T12:55:47.225Z,8.57
2018-07-21T12:58:15.729Z,8.67
2018-07-21T13:00:44.234Z,8.63
2018-07-21T13:03:12.796Z,9.47
2018-07-21T13:05:41.550Z,8.80
2018-07-21T13:08:10.062Z,8.00
2018-07-21T13:10:38.595Z,9.33
2018-07-21T13:13:07.158Z,9.87
2018-07-21T13:15:35.752Z,9.63
2018-07-21T13:18:07.187Z,8.90
2018-07-21T13:20:37.269Z,8.73
2018-07-21T13:23:05.871Z,8.40
2018-07-21T13:25:34.427Z,8.27
2018-07-21T13:28:02.951Z,8.97
2018-07-21T13:30:31.494Z,7.90
2018-07-21T13:33:00.214Z,7.93
2018-07-21T13:35:28.807Z,7.47
2018-07-21T13:37:57.328Z,7.97
2018-07-21T13:40:25.955Z,8.10
2018-07-21T13:42:54.628Z,8.70
2018-07-21T13:45:23.340Z,8.27
2018-07-21T13:47:51.950Z,8.70
2018-07-21T13:50:20.543Z,8.20
2018-07-21T13:52:49.106Z,8.57
2018-07-21T13:55:17.750Z,7.70
2018-07-21T13:57:46.468Z,7.73
2018-07-21T14:00:15.358Z,8.40
2018-07-21T14:02:44.275Z,8.60
2018-07-21T14:05:13.308Z,8.30
2018-07-21T14:07:41.898Z,7.77
2018-07-21T14:10:10.571Z,8.23
2018-07-21T14:12:39.267Z,8.27
2018-07-21T14:15:07.802Z,7.97
2018-07-21T14:17:36.388Z,8.50
2018-07-21T14:20:05.457Z,9.03
2018-07-21T14:22:34.052Z,8.93
2018-07-21T14:25:02.683Z,8.27
2018-07-21T14:27:31.299Z,7.50
2018-07-21T14:30:01.326Z,7.70
2018-07-21T14:32:30.259Z,7.63
2018-07-21T14:34:58.804Z,7.90
2018-07-21T14:37:27.364Z,8.30
2018-07-21T14:39:55.909Z,7.90
2018-07-21T14:42:24.468Z,8.57
2018-07-21T14:44:53.000Z,7.87
2018-07-21T14:47:23.695Z,8.30
2018-07-21T14:49:54.420Z,8.13
2018-07-21T14:52:25.582Z,7.97
2018-07-21T14:54:55.043Z,7.33
2018-07-21T14:57:25.310Z,8.20
2018-07-21T14:59:58.068Z,7.90
2018-07-21T15:02:29.714Z,7.90
2018-07-21T15:05:00.060Z,7.83
2018-07-21T15:07:30.109Z,7.53
2018-07-21T15:10:00.081Z,7.90
2018-07-21T15:12:30.333Z,7.60
2018-07-21T15:15:00.490Z,7.60
2018-07-21T15:17:29.312Z,7.60
2018-07-21T15:19:58.330Z,8.37
2018-07-21T15:22:42.211Z,8.20
2018-07-21T15:25:10.798Z,7.80
2018-07-21T15:27:39.853Z,7.60
2018-07-21T15:30:08.850Z,7.70
2018-07-21T15:32:37.502Z,7.77
2018-07-21T15:35:06.057Z,7.10
2018-07-21T15:37:36.424Z,7.40
2018-07-21T15:40:06.246Z,8.20
2018-07-21T15:42:34.953Z,7.80
2018-07-21T15:45:03.686Z,8.70
2018-07-21T15:47:32.280Z,10.20
2018-07-21T15:50:01.273Z,10.07
2018-07-21T15:52:30.288Z,10.70
2018-07-21T15:54:58.928Z,10.57
2018-07-21T15:57:27.515Z,11.10
2018-07-21T15:59:55.987Z,11.77
2018-07-21T16:02:24.584Z,14.50
2018-07-21T16:04:53.346Z,15.67
2018-07-21T16:07:21.875Z,16.40
2018-07-21T16:09:50.404Z,18.47
2018-07-21T16:12:18.970Z,18.23
2018-07-21T16:14:47.786Z,20.43
2018-07-21T16:17:16.520Z,23.67
2018-07-21T16:19:45.196Z,20.20
2018-07-21T16:22:14.080Z,28.33
2018-07-21T16:24:42.631Z,28.17
2018-07-21T16:27:11.234Z,28.17
2018-07-21T16:29:39.756Z,30.47
2018-07-21T16:32:11.043Z,32.50
2018-07-21T16:34:39.776Z,31.13
2018-07-21T16:37:09.102Z,28.17
2018-07-21T16:39:37.599Z,25.53
2018-07-21T16:42:08.223Z,26.10
2018-07-21T16:44:36.743Z,29.37
2018-07-21T16:47:05.743Z,32.07
2018-07-21T16:49:34.253Z,28.70
2018-07-21T16:52:03.230Z,30.60
2018-07-21T16:54:31.892Z,27.93
2018-07-21T16:57:03.074Z,28.67
2018-07-21T16:59:31.607Z,27.40
2018-07-21T17:02:00.118Z,28.30
2018-07-21T17:04:28.663Z,26.00
2018-07-21T17:06:58.419Z,26.53
2018-07-21T17:09:27.679Z,26.47
2018-07-21T17:11:56.147Z,28.47
2018-07-21T17:14:24.767Z,23.97
2018-07-21T17:16:55.125Z,27.70
2018-07-21T17:19:23.762Z,28.43
2018-07-21T17:21:52.254Z,28.93
2018-07-21T17:24:20.818Z,26.20
2018-07-21T17:26:49.394Z,25.13
2018-07-21T17:29:17.946Z,26.03
2018-07-21T17:31:46.595Z,24.37
2018-07-21T17:34:20.118Z,24.97
2018-07-21T17:36:48.730Z,25.00
2018-07-21T17:39:17.266Z,30.37
2018-07-21T17:41:45.754Z,33.77
2018-07-21T17:44:14.304Z,36.93
2018-07-21T17:46:42.790Z,29.50
2018-07-21T17:49:11.285Z,30.83
2018-07-21T17:51:40.842Z,30.03
2018-07-21T17:54:09.434Z,31.10
2018-07-21T17:56:38.012Z,29.10
2018-07-21T17:59:06.914Z,28.40
2018-07-21T18:01:35.423Z,25.90
2018-07-21T18:04:04.066Z,25.20
2018-07-21T18:06:33.097Z,26.23
2018-07-21T18:09:01.682Z,28.50
2018-07-21T18:11:30.203Z,25.50
2018-07-21T18:13:58.742Z,24.80
2018-07-21T18:16:27.273Z,26.87
2018-07-21T18:18:55.802Z,28.30
2018-07-21T18:21:24.303Z,28.77
2018-07-21T18:23:52.878Z,31.73
2018-07-21T18:26:21.372Z,30.60
2018-07-21T18:28:49.902Z,32.23
2018-07-21T18:31:18.414Z,32.03
2018-07-21T18:33:47.263Z,32.63
2018-07-21T18:36:16.758Z,32.67
2018-07-21T18:38:45.382Z,33.60
2018-07-21T18:42:43.064Z,32.07
2018-07-21T18:45:11.564Z,33.70
2018-07-21T18:47:40.067Z,35.57
2018-07-21T18:50:08.591Z,39.43
2018-07-21T18:52:37.123Z,35.67
2018-07-21T18:55:05.667Z,37.63
2018-07-21T18:57:35.867Z,36.43
2018-07-21T19:00:04.713Z,26.30
2018-07-21T19:02:33.202Z,24.43
2018-07-21T19:05:01.755Z,24.20
2018-07-21T19:07:30.226Z,28.23
2018-07-21T19:09:58.727Z,27.57
2018-07-21T19:12:32.578Z,27.03
2018-07-21T19:15:01.066Z,24.60
2018-07-21T19:17:29.552Z,24.67
2018-07-21T19:20:03.212Z,29.30
2018-07-21T19:22:31.744Z,25.97
2018-07-21T19:25:04.486Z,24.50
2018-07-21T19:27:33.501Z,29.07
2018-07-21T19:30:02.604Z,26.90
2018-07-21T19:32:36.342Z,27.00
2018-07-21T19:35:05.580Z,29.30
2018-07-21T19:37:39.408Z,30.17
2018-07-21T19:40:07.971Z,41.57
2018-07-21T19:42:36.621Z,42.97
2018-07-21T19:45:05.215Z,34.50
2018-07-21T19:47:34.047Z,29.87
2018-07-21T19:50:02.896Z,26.47
2018-07-21T19:52:31.393Z,27.30
2018-07-21T19:55:00.017Z,26.63
2018-07-21T19:57:28.618Z,29.13
2018-07-21T19:59:57.138Z,30.10
2018-07-21T20:02:25.630Z,30.50
2018-07-21T20:04:54.320Z,32.17
2018-07-21T20:07:23.210Z,30.27
2018-07-21T20:09:51.721Z,31.20
2018-07-21T20:12:20.224Z,33.97
2018-07-21T20:14:48.776Z,36.87
2018-07-21T20:17:17.320Z,36.03
2018-07-21T20:19:46.023Z,35.00
2018-07-21T20:22:14.592Z,36.43
2018-07-21T20:24:43.126Z,33.17
2018-07-21T20:27:11.675Z,33.80
2018-07-21T20:29:40.248Z,33.43
2018-07-21T20:32:09.854Z,28.87
2018-07-21T20:34:38.425Z,28.10
2018-07-21T20:37:06.967Z,27.67
2018-07-21T20:39:36.459Z,29.60
2018-07-21T20:42:05.136Z,26.77
2018-07-21T20:44:33.628Z,27.20
2018-07-21T20:47:02.170Z,26.80
2018-07-21T20:49:30.696Z,26.47
2018-07-21T20:51:59.239Z,26.07
2018-07-21T20:54:27.784Z,25.40
2018-07-21T20:56:56.323Z,26.90
2018-07-21T20:59:24.826Z,24.83
2018-07-21T21:01:53.332Z,25.73
2018-07-21T21:04:21.836Z,24.97
2018-07-21T21:06:50.715Z,22.97
2018-07-21T21:09:19.196Z,25.33
2018-07-21T21:11:47.712Z,21.20
2018-07-21T21:14:16.179Z,21.93
2018-07-21T21:16:44.790Z,23.40
2018-07-21T21:19:13.266Z,24.07
2018-07-21T21:21:41.838Z,22.80
2018-07-21T21:24:10.330Z,21.83
2018-07-21T21:26:38.848Z,20.60
2018-07-21T21:29:07.341Z,20.43
2018-07-21T21:31:35.843Z,17.63
2018-07-21T21:34:04.351Z,19.50
2018-07-21T21:36:32.863Z,19.03
2018-07-21T21:39:01.359Z,20.27
2018-07-21T21:41:29.888Z,18.73
2018-07-21T21:43:59.751Z,20.27
2018-07-21T21:46:28.263Z,21.43
2018-07-21T21:48:56.747Z,22.77
2018-07-21T21:51:25.249Z,22.17
2018-07-21T21:53:53.747Z,22.00
2018-07-21T21:56:23.333Z,21.33
2018-07-21T21:58:51.819Z,21.30
2018-07-21T22:01:20.529Z,22.80
2018-07-21T22:03:49.004Z,22.07
2018-07-21T22:06:19.139Z,24.07
2018-07-21T22:08:51.339Z,23.43
2018-07-21T22:11:21.490Z,24.50
2018-07-21T22:13:50.013Z,21.83
2018-07-21T22:16:18.538Z,22.90
2018-07-21T22:18:47.116Z,23.93
2018-07-21T22:21:15.908Z,23.57
2018-07-21T22:23:44.095Z,24.93
2018-07-21T22:26:14.826Z,25.27
2018-07-21T22:28:43.414Z,25.87
2018-07-21T22:31:21.860Z,25.63
2018-07-21T22:33:50.428Z,26.30
2018-07-21T22:36:30.564Z,25.77
2018-07-21T22:39:04.739Z,28.20
2018-07-21T22:41:36.892Z,32.53
2018-07-21T22:44:08.645Z,31.57
2018-07-21T22:46:43.747Z,33.57
2018-07-21T22:49:14.546Z,30.37
2018-07-21T22:51:51.464Z,26.37
2018-07-21T22:54:24.868Z,25.67
2018-07-21T22:56:54.751Z,25.70
2018-07-21T22:59:25.586Z,26.03
2018-07-21T23:01:55.713Z,27.40
2018-07-21T23:04:29.079Z,32.03
2018-07-21T23:07:01.538Z,29.13
2018-07-21T23:09:31.949Z,26.73
2018-07-21T23:12:01.386Z,27.70
2018-07-21T23:14:32.400Z,29.53
2018-07-21T23:17:02.732Z,26.20
2018-07-21T23:19:34.079Z,28.50
2018-07-21T23:22:04.334Z,28.43
2018-07-21T23:24:35.131Z,28.27
2018-07-21T23:27:06.325Z,28.80
2018-07-21T23:29:35.444Z,26.47
2018-07-21T23:32:05.412Z,26.90
2018-07-21T23:34:35.340Z,27.53
2018-07-21T23:37:05.355Z,27.33
2018-07-21T23:39:34.818Z,28.73
2018-07-21T23:42:05.494Z,27.13
2018-07-21T23:44:34.600Z,29.83
2018-07-21T23:47:03.353Z,30.17
2018-07-21T23:49:31.923Z,30.57
2018-07-21T23:52:01.150Z,29.10
2018-07-21T23:54:29.807Z,28.47
2018-07-21T23:56:58.503Z,31.07
2018-07-21T23:59:27.517Z,33.40
